WSH weather

Brookhaven Airport
Shirley, New York, United States

Public forecast

Using degrees Fahrenheit for public forecast. Weather courtesy of forecast.io.

METAR (pilot weather report)

Retrieved 2019/06/26 23:56 UTC (44 minutes ago):

KHWV 262356Z AUTO 21007KT 10SM CLR 24/17 A3002 RMK AO2 SLP166 T02440172 10289 20244 53011

TAF (pilot weather forecast)

Forecast is more than 12 hours old.

Closest forecast is Long Island Mac Arthur Airport, 10.6 nm (19.7 km) W. Retrieved 2019/06/26 00:28 UTC (1 day ago):

TAF KISP 262326Z 2700/2724 20006KT P6SM FEW060 FM270200 VRB04KT P6SM SCT060 SCT250 FM271100 34005KT P6SM FEW250 FM271600 32008KT P6SM FEW250 FM272100 22007KT P6SM SCT250